createdAt,value
2023-05-17T00:02:07.322Z,6.28
2023-05-17T00:04:39.758Z,5.13
2023-05-17T00:07:11.973Z,5.75
2023-05-17T00:09:44.500Z,5.82
2023-05-17T00:12:16.686Z,5.30
2023-05-17T00:14:49.015Z,5.03
2023-05-17T00:17:21.654Z,5.78
2023-05-17T00:19:54.118Z,5.57
2023-05-17T00:22:26.741Z,6.13
2023-05-17T00:24:59.131Z,6.40
2023-05-17T00:27:31.360Z,5.25
2023-05-17T00:30:05.331Z,5.95
2023-05-17T00:32:37.755Z,6.20
2023-05-17T00:35:10.118Z,5.40
2023-05-17T00:37:47.904Z,5.70
2023-05-17T00:40:20.555Z,5.20
2023-05-17T00:42:53.049Z,5.20
2023-05-17T00:45:27.820Z,5.80
2023-05-17T00:48:01.805Z,5.88
2023-05-17T00:50:34.680Z,5.60
2023-05-17T00:53:07.436Z,5.45
2023-05-17T00:55:40.002Z,6.17
2023-05-17T00:58:13.240Z,5.43
2023-05-17T01:00:46.921Z,6.20
2023-05-17T01:03:19.371Z,5.78
2023-05-17T01:05:52.080Z,5.60
2023-05-17T01:08:24.336Z,5.20
2023-05-17T01:11:05.698Z,5.35
2023-05-17T01:13:51.599Z,4.90
2023-05-17T01:16:31.507Z,4.22
2023-05-17T01:19:42.037Z,5.25
2023-05-17T01:22:28.234Z,5.05
2023-05-17T01:25:20.765Z,4.47
2023-05-17T01:27:58.986Z,5.32
2023-05-17T01:30:33.916Z,5.05
2023-05-17T01:33:07.385Z,4.90
2023-05-17T01:35:40.131Z,5.93
2023-05-17T01:38:12.417Z,5.38
2023-05-17T01:40:52.849Z,5.07
2023-05-17T01:43:58.588Z,5.40
2023-05-17T01:46:39.947Z,4.60
2023-05-17T01:49:31.396Z,4.65
2023-05-17T01:52:14.436Z,4.93
2023-05-17T01:55:06.274Z,5.03
2023-05-17T01:57:39.385Z,4.63
2023-05-17T02:00:12.837Z,4.75
2023-05-17T02:02:48.163Z,5.50
2023-05-17T02:05:20.632Z,5.13
2023-05-17T02:07:53.644Z,4.57
2023-05-17T02:10:26.134Z,5.05
2023-05-17T02:12:58.406Z,5.38
2023-05-17T02:15:31.572Z,5.17
2023-05-17T02:18:05.320Z,5.10
2023-05-17T02:20:38.146Z,5.40
2023-05-17T02:23:10.566Z,4.87
2023-05-17T02:25:42.809Z,5.93
2023-05-17T02:28:15.833Z,5.33
2023-05-17T02:30:48.384Z,5.73
2023-05-17T02:33:21.721Z,5.30
2023-05-17T02:35:54.950Z,5.47
2023-05-17T02:38:29.374Z,5.30
2023-05-17T02:41:01.558Z,5.45
2023-05-17T02:43:33.816Z,5.38
2023-05-17T02:46:06.744Z,6.00
2023-05-17T02:48:39.438Z,5.30
2023-05-17T02:51:11.943Z,5.67
2023-05-17T02:53:44.849Z,5.33
2023-05-17T02:56:17.087Z,4.88
2023-05-17T02:58:49.513Z,5.40
2023-05-17T03:01:22.397Z,5.20
2023-05-17T03:03:55.077Z,5.05
2023-05-17T03:06:28.010Z,5.53
2023-05-17T03:09:00.415Z,5.03
2023-05-17T03:11:33.487Z,5.35
2023-05-17T03:16:39.381Z,5.55
2023-05-17T03:19:12.735Z,4.45
2023-05-17T03:21:47.160Z,4.60
2023-05-17T03:24:19.530Z,4.65
2023-05-17T03:26:51.879Z,4.65
2023-05-17T03:29:24.648Z,4.05
2023-05-17T03:31:57.089Z,4.30
2023-05-17T03:34:30.416Z,4.30
2023-05-17T03:37:02.756Z,4.63
2023-05-17T03:39:35.468Z,5.23
2023-05-17T03:42:08.015Z,4.60
2023-05-17T03:44:41.390Z,4.70
2023-05-17T03:47:14.127Z,4.90
2023-05-17T03:49:46.568Z,4.65
2023-05-17T03:52:19.679Z,4.57
2023-05-17T03:54:51.919Z,4.10
2023-05-17T03:57:24.766Z,4.53
2023-05-17T03:59:57.010Z,4.20
2023-05-17T04:02:30.426Z,4.00
2023-05-17T04:05:03.218Z,4.63
2023-05-17T04:07:36.668Z,4.25
2023-05-17T04:12:43.181Z,5.00
2023-05-17T04:15:16.113Z,4.43
2023-05-17T04:20:24.928Z,3.92
2023-05-17T04:22:57.926Z,3.53
2023-05-17T04:25:33.488Z,4.63
2023-05-17T04:28:06.608Z,4.05
2023-05-17T04:30:47.869Z,3.95
2023-05-17T04:33:20.954Z,3.67
2023-05-17T04:35:55.894Z,5.25
2023-05-17T04:38:29.655Z,4.97
2023-05-17T04:41:06.158Z,4.78
2023-05-17T04:43:42.343Z,4.95
2023-05-17T04:46:21.904Z,3.80
2023-05-17T04:48:56.686Z,3.88
2023-05-17T04:51:30.945Z,4.95
2023-05-17T04:54:07.162Z,4.47
2023-05-17T04:56:41.153Z,4.18
2023-05-17T04:59:19.505Z,5.13
2023-05-17T05:01:52.229Z,4.60
2023-05-17T05:04:26.179Z,5.70
2023-05-17T05:06:58.764Z,4.32
2023-05-17T05:09:31.271Z,4.43
2023-05-17T05:12:03.989Z,4.38
2023-05-17T05:14:37.142Z,4.38
2023-05-17T05:17:10.280Z,5.65
2023-05-17T05:19:44.205Z,4.80
2023-05-17T05:24:50.067Z,5.00
2023-05-17T05:27:22.938Z,5.88
2023-05-17T05:29:56.720Z,5.95
2023-05-17T05:32:30.275Z,4.78
2023-05-17T05:35:03.008Z,3.97
2023-05-17T05:37:35.417Z,4.10
2023-05-17T05:40:09.221Z,4.30
2023-05-17T05:42:41.913Z,4.65
2023-05-17T05:45:15.331Z,4.45
2023-05-17T05:47:50.284Z,5.03
2023-05-17T05:50:22.674Z,4.85
2023-05-17T05:53:11.000Z,3.75
2023-05-17T05:55:53.465Z,3.90
2023-05-17T05:58:26.163Z,3.35
2023-05-17T06:00:58.734Z,3.25
2023-05-17T06:03:31.175Z,3.70
2023-05-17T06:06:03.615Z,3.92
2023-05-17T06:08:36.029Z,3.17
2023-05-17T06:11:08.359Z,3.35
2023-05-17T06:13:40.741Z,3.33
2023-05-17T06:16:13.948Z,3.10
2023-05-17T06:18:47.991Z,3.22
2023-05-17T06:21:21.816Z,3.03
2023-05-17T06:23:54.051Z,3.03
2023-05-17T06:26:27.775Z,3.93
2023-05-17T06:28:59.967Z,3.17
2023-05-17T06:31:32.387Z,3.08
2023-05-17T06:34:04.764Z,3.35
2023-05-17T06:36:38.587Z,3.13
2023-05-17T06:39:11.451Z,3.42
2023-05-17T06:41:43.980Z,2.85
2023-05-17T06:44:18.947Z,2.92
2023-05-17T06:46:51.464Z,3.17
2023-05-17T06:49:23.796Z,3.03
2023-05-17T06:52:02.997Z,3.45
2023-05-17T06:54:35.831Z,2.92
2023-05-17T06:57:08.236Z,2.83
2023-05-17T06:59:40.674Z,2.90
2023-05-17T07:02:13.263Z,3.00
2023-05-17T07:04:45.833Z,2.80
2023-05-17T07:07:18.156Z,3.50
2023-05-17T07:09:50.647Z,3.33
2023-05-17T07:12:23.102Z,3.22
2023-05-17T07:14:55.571Z,2.78
2023-05-17T07:17:27.967Z,2.97
2023-05-17T07:20:00.944Z,2.72
2023-05-17T07:22:33.294Z,2.40
2023-05-17T07:25:07.039Z,2.80
2023-05-17T07:27:39.303Z,2.50
2023-05-17T07:30:12.715Z,2.78
2023-05-17T07:32:45.283Z,3.33
2023-05-17T07:35:19.184Z,3.13
2023-05-17T07:37:52.814Z,2.65
2023-05-17T07:40:25.111Z,2.80
2023-05-17T07:42:57.947Z,2.60
2023-05-17T07:45:30.612Z,2.93
2023-05-17T07:48:03.054Z,2.77
2023-05-17T07:50:35.305Z,3.30
2023-05-17T07:53:07.554Z,2.70
2023-05-17T07:55:39.722Z,3.13
2023-05-17T07:58:12.301Z,2.88
2023-05-17T08:00:44.644Z,2.50
2023-05-17T08:03:17.662Z,3.00
2023-05-17T08:05:49.993Z,3.17
2023-05-17T08:08:22.535Z,2.90
2023-05-17T08:10:54.849Z,2.60
2023-05-17T08:13:27.215Z,2.55
2023-05-17T08:16:12.712Z,2.70
2023-05-17T08:18:46.953Z,2.67
2023-05-17T08:21:19.481Z,3.00
2023-05-17T08:23:51.964Z,2.40
2023-05-17T08:26:27.424Z,3.40
2023-05-17T08:28:59.970Z,3.25
2023-05-17T08:31:33.202Z,3.13
2023-05-17T08:34:05.527Z,3.10
2023-05-17T08:36:38.096Z,2.40
2023-05-17T08:39:10.589Z,2.53
2023-05-17T08:41:43.437Z,2.63
2023-05-17T08:44:19.993Z,3.67
2023-05-17T08:46:54.056Z,2.38
2023-05-17T08:49:29.040Z,2.90
2023-05-17T08:52:03.565Z,2.67
2023-05-17T08:54:39.223Z,2.40
2023-05-17T08:57:14.180Z,2.42
2023-05-17T08:59:48.051Z,3.10
2023-05-17T09:02:22.193Z,2.75
2023-05-17T09:04:56.422Z,2.60
2023-05-17T09:07:28.975Z,2.55
2023-05-17T09:10:03.797Z,2.70
2023-05-17T09:12:36.331Z,2.72
2023-05-17T09:15:20.053Z,2.33
2023-05-17T09:17:53.802Z,2.20
2023-05-17T09:20:35.410Z,2.85
2023-05-17T09:23:13.593Z,3.03
2023-05-17T09:25:49.684Z,2.88
2023-05-17T09:28:22.149Z,2.65
2023-05-17T09:30:54.391Z,2.83
2023-05-17T09:33:27.055Z,2.30
2023-05-17T09:36:00.789Z,2.95
2023-05-17T09:38:33.002Z,2.58
2023-05-17T09:41:06.863Z,3.05
2023-05-17T09:43:40.325Z,2.88
2023-05-17T09:46:12.996Z,2.85
2023-05-17T09:48:47.053Z,2.58
2023-05-17T09:51:19.364Z,2.83
2023-05-17T09:53:54.934Z,2.75
2023-05-17T09:56:31.184Z,2.80
2023-05-17T09:59:04.918Z,3.03
2023-05-17T10:01:40.700Z,3.25
2023-05-17T10:04:14.340Z,2.80
2023-05-17T10:06:50.022Z,2.58
2023-05-17T10:09:24.681Z,3.33
2023-05-17T10:11:58.114Z,3.30
2023-05-17T10:17:05.407Z,2.63
2023-05-17T10:19:38.868Z,2.30
2023-05-17T10:24:52.073Z,2.42
2023-05-17T10:27:25.947Z,2.75
2023-05-17T10:29:59.244Z,2.75
2023-05-17T10:32:31.987Z,2.63
2023-05-17T10:35:11.930Z,2.47
2023-05-17T10:37:45.131Z,2.60
2023-05-17T10:40:17.910Z,2.85
2023-05-17T10:42:52.376Z,2.63
2023-05-17T10:45:26.004Z,2.83
2023-05-17T10:48:01.508Z,2.30
2023-05-17T10:53:11.573Z,3.03
2023-05-17T10:55:45.174Z,3.10
2023-05-17T11:00:55.902Z,2.22
2023-05-17T11:03:29.738Z,2.13
2023-05-17T11:09:17.882Z,2.92
2023-05-17T11:12:07.817Z,2.15
2023-05-17T11:14:45.922Z,2.92
2023-05-17T11:17:21.391Z,2.40
2023-05-17T11:20:11.511Z,2.58
2023-05-17T11:22:59.187Z,2.30
2023-05-17T11:25:39.842Z,2.25
2023-05-17T11:28:21.798Z,2.10
2023-05-17T11:31:01.237Z,2.05
2023-05-17T11:33:45.121Z,2.13
2023-05-17T11:39:12.264Z,2.60
2023-05-17T11:41:51.752Z,2.28
2023-05-17T11:44:34.874Z,2.28
2023-05-17T11:47:11.725Z,3.00
2023-05-17T11:49:45.559Z,1.65
2023-05-17T11:52:18.329Z,1.67
2023-05-17T11:54:51.956Z,1.77
2023-05-17T11:57:30.933Z,1.80
2023-05-17T12:00:05.761Z,1.70
2023-05-17T12:02:47.562Z,1.20
2023-05-17T12:05:22.829Z,1.60
2023-05-17T12:07:56.252Z,1.67
2023-05-17T12:13:04.211Z,1.45
2023-05-17T12:15:36.857Z,1.25
2023-05-17T12:18:09.773Z,1.70
2023-05-17T12:21:02.971Z,1.45
2023-05-17T12:23:37.841Z,1.52
2023-05-17T12:26:11.316Z,1.25
2023-05-17T12:28:57.807Z,1.50
2023-05-17T12:31:33.881Z,1.25
2023-05-17T12:34:07.439Z,1.40
2023-05-17T12:36:40.928Z,1.20
2023-05-17T12:39:14.712Z,1.50
2023-05-17T12:41:47.998Z,1.40
2023-05-17T12:44:21.110Z,1.48
2023-05-17T12:46:56.479Z,1.58
2023-05-17T12:49:29.287Z,1.00
2023-05-17T12:52:05.728Z,1.30
2023-05-17T12:54:40.047Z,1.60
2023-05-17T12:57:15.500Z,1.35
2023-05-17T12:59:53.610Z,1.58
2023-05-17T13:02:26.611Z,1.55
2023-05-17T13:04:59.632Z,1.15
2023-05-17T13:07:33.284Z,1.38
2023-05-17T13:12:40.556Z,2.13
2023-05-17T13:15:14.916Z,1.70
2023-05-17T13:17:50.803Z,1.80
2023-05-17T13:20:24.049Z,2.00
2023-05-17T13:22:56.324Z,2.00
2023-05-17T13:25:28.724Z,1.63
2023-05-17T13:28:02.702Z,1.67
2023-05-17T13:30:35.711Z,1.70
2023-05-17T13:33:08.515Z,1.70
2023-05-17T13:35:41.700Z,1.80
2023-05-17T13:38:14.604Z,1.60
2023-05-17T13:40:47.067Z,2.05
2023-05-17T13:43:19.838Z,1.77
2023-05-17T13:45:56.966Z,2.00
2023-05-17T13:48:30.129Z,1.80
2023-05-17T13:51:02.492Z,1.88
2023-05-17T13:53:34.898Z,1.95
2023-05-17T13:56:07.810Z,2.30
2023-05-17T13:58:44.207Z,1.70
2023-05-17T14:01:18.754Z,1.88
2023-05-17T14:03:51.059Z,2.47
2023-05-17T14:06:23.734Z,2.15
2023-05-17T14:08:57.374Z,2.80
2023-05-17T14:11:30.062Z,2.35
2023-05-17T14:14:02.461Z,2.63
2023-05-17T14:16:34.811Z,2.50
2023-05-17T14:19:07.172Z,2.40
2023-05-17T14:21:39.518Z,2.55
2023-05-17T14:24:11.759Z,3.00
2023-05-17T14:26:44.470Z,2.08
2023-05-17T14:29:24.612Z,2.58
2023-05-17T14:31:57.011Z,2.80
2023-05-17T14:34:31.186Z,2.72
2023-05-17T14:37:03.493Z,2.50
2023-05-17T14:39:35.908Z,2.15
2023-05-17T14:42:08.831Z,3.03
2023-05-17T14:44:41.458Z,3.07
2023-05-17T14:47:13.708Z,2.53
2023-05-17T14:49:46.449Z,2.75
2023-05-17T14:52:19.160Z,2.80
2023-05-17T14:54:51.453Z,2.60
2023-05-17T14:57:23.754Z,2.55
2023-05-17T14:59:56.658Z,2.47
2023-05-17T15:02:29.459Z,2.40
2023-05-17T15:05:04.225Z,2.72
2023-05-17T15:07:38.021Z,2.70
2023-05-17T15:10:13.124Z,2.40
2023-05-17T15:12:46.056Z,2.72
2023-05-17T15:15:20.821Z,2.75
2023-05-17T15:17:54.549Z,2.63
2023-05-17T15:20:26.874Z,2.53
2023-05-17T15:22:59.459Z,3.03
2023-05-17T15:25:32.025Z,2.80
2023-05-17T15:28:06.380Z,2.83
2023-05-17T15:30:42.062Z,2.55
2023-05-17T15:33:14.425Z,2.80
2023-05-17T15:35:47.390Z,3.00
2023-05-17T15:38:20.078Z,3.20
2023-05-17T15:41:06.938Z,3.10
2023-05-17T15:43:39.293Z,2.90
2023-05-17T15:46:12.577Z,3.17
2023-05-17T15:48:45.039Z,3.08
2023-05-17T15:51:17.726Z,3.05
2023-05-17T15:53:50.009Z,3.20
2023-05-17T15:56:23.527Z,2.80
2023-05-17T16:01:28.662Z,2.65
2023-05-17T16:04:01.113Z,3.00
2023-05-17T16:06:36.290Z,3.60
2023-05-17T16:09:09.297Z,2.60
2023-05-17T16:11:42.260Z,2.45
2023-05-17T16:14:14.861Z,2.63
2023-05-17T16:16:47.309Z,2.80
2023-05-17T16:19:20.205Z,2.97
2023-05-17T16:21:52.900Z,2.95
2023-05-17T16:24:25.234Z,2.70
2023-05-17T16:26:57.772Z,3.17
2023-05-17T16:29:30.055Z,3.03
2023-05-17T16:32:02.477Z,3.90
2023-05-17T16:34:34.738Z,3.88
2023-05-17T16:37:07.115Z,4.25
2023-05-17T16:39:40.017Z,4.18
2023-05-17T16:42:12.360Z,4.05
2023-05-17T16:44:45.116Z,4.80
2023-05-17T16:47:17.827Z,4.18
2023-05-17T16:49:50.089Z,4.37
2023-05-17T16:52:23.308Z,4.23
2023-05-17T16:55:01.958Z,4.22
2023-05-17T16:57:34.517Z,4.32
2023-05-17T17:00:08.899Z,4.72
2023-05-17T17:02:41.221Z,3.92
2023-05-17T17:05:13.507Z,4.50
2023-05-17T17:07:47.920Z,4.47
2023-05-17T17:10:20.776Z,4.28
2023-05-17T17:12:53.139Z,5.20
2023-05-17T17:15:25.676Z,4.85
2023-05-17T17:17:58.017Z,4.90
2023-05-17T17:20:30.970Z,5.35
2023-05-17T17:23:04.101Z,5.22
2023-05-17T17:25:36.387Z,5.20
2023-05-17T17:28:09.522Z,5.28
2023-05-17T17:30:41.741Z,4.90
2023-05-17T17:33:14.038Z,5.13
2023-05-17T17:35:46.485Z,4.90
2023-05-17T17:38:19.045Z,4.60
2023-05-17T17:40:51.547Z,5.90
2023-05-17T17:43:24.001Z,5.43
2023-05-17T17:45:56.282Z,4.68
2023-05-17T17:48:28.646Z,5.30
2023-05-17T17:51:01.739Z,4.97
2023-05-17T17:53:34.056Z,5.13
2023-05-17T17:56:07.366Z,4.47
2023-05-17T17:58:39.565Z,4.75
2023-05-17T18:01:11.770Z,4.68
2023-05-17T18:03:44.095Z,5.28
2023-05-17T18:06:16.652Z,4.53
2023-05-17T18:08:49.325Z,4.85
2023-05-17T18:11:21.649Z,4.53
2023-05-17T18:13:54.994Z,5.00
2023-05-17T18:16:27.292Z,4.45
2023-05-17T18:18:59.807Z,4.47
2023-05-17T18:21:32.188Z,4.60
2023-05-17T18:24:04.701Z,4.32
2023-05-17T18:26:37.628Z,4.22
2023-05-17T18:29:09.855Z,4.75
2023-05-17T18:31:42.125Z,5.13
2023-05-17T18:34:15.020Z,5.18
2023-05-17T18:36:47.388Z,6.03
2023-05-17T18:39:19.877Z,5.95
2023-05-17T18:41:52.871Z,4.57
2023-05-17T18:44:25.726Z,4.35
2023-05-17T18:46:57.991Z,5.00
2023-05-17T18:49:30.626Z,4.53
2023-05-17T18:52:03.001Z,4.07
2023-05-17T18:54:35.871Z,4.68
2023-05-17T18:57:11.596Z,4.72
2023-05-17T18:59:43.859Z,4.47
2023-05-17T19:02:16.147Z,4.80
2023-05-17T19:04:48.652Z,5.20
2023-05-17T19:07:20.967Z,6.20
2023-05-17T19:09:53.203Z,5.28
2023-05-17T19:12:25.881Z,8.27
2023-05-17T19:14:58.078Z,6.82
2023-05-17T19:17:30.759Z,10.18
2023-05-17T19:20:04.777Z,7.10
2023-05-17T19:22:39.397Z,5.50
2023-05-17T19:25:13.392Z,12.40
2023-05-17T19:27:47.912Z,8.35
2023-05-17T19:30:20.876Z,4.90
2023-05-17T19:32:53.373Z,6.35
2023-05-17T19:35:25.978Z,7.32
2023-05-17T19:37:58.786Z,5.97
2023-05-17T19:40:31.687Z,5.43
2023-05-17T19:43:04.324Z,12.32
2023-05-17T19:45:36.642Z,17.45
2023-05-17T19:48:09.113Z,13.25
2023-05-17T19:50:41.568Z,14.82
2023-05-17T19:53:13.869Z,7.30
2023-05-17T19:55:46.217Z,5.85
2023-05-17T19:58:18.507Z,9.13
2023-05-17T20:00:50.910Z,7.03
2023-05-17T20:03:23.397Z,6.47
2023-05-17T20:05:55.820Z,7.13
2023-05-17T20:08:28.094Z,8.43
2023-05-17T20:11:00.350Z,7.97
2023-05-17T20:13:34.381Z,6.00
2023-05-17T20:16:13.204Z,5.57
2023-05-17T20:18:45.815Z,6.10
2023-05-17T20:21:21.923Z,5.70
2023-05-17T20:24:01.500Z,5.32
2023-05-17T20:26:37.405Z,5.55
2023-05-17T20:29:09.784Z,7.75
2023-05-17T20:31:42.158Z,5.55
2023-05-17T20:34:15.330Z,6.30
2023-05-17T20:36:47.529Z,7.25
2023-05-17T20:39:22.113Z,7.72
2023-05-17T20:41:55.775Z,5.05
2023-05-17T20:44:28.917Z,5.82
2023-05-17T20:47:02.276Z,6.43
2023-05-17T20:49:34.759Z,5.47
2023-05-17T20:52:07.027Z,6.28
2023-05-17T20:54:39.758Z,7.55
2023-05-17T20:57:12.244Z,6.93
2023-05-17T20:59:44.663Z,7.30
2023-05-17T21:02:17.073Z,6.85
2023-05-17T21:04:49.498Z,6.93
2023-05-17T21:07:22.642Z,5.95
2023-05-17T21:09:55.696Z,5.70
2023-05-17T21:12:28.812Z,6.13
2023-05-17T21:15:15.822Z,5.30
2023-05-17T21:17:50.421Z,6.10
2023-05-17T21:20:24.725Z,6.93
2023-05-17T21:22:57.236Z,5.82
2023-05-17T21:25:30.141Z,5.40
2023-05-17T21:28:02.597Z,5.95
2023-05-17T21:30:35.530Z,5.78
2023-05-17T21:33:07.928Z,5.60
2023-05-17T21:35:40.258Z,6.50
2023-05-17T21:38:12.985Z,4.97
2023-05-17T21:40:45.212Z,5.63
2023-05-17T21:43:17.634Z,5.20
2023-05-17T21:45:50.476Z,5.45
2023-05-17T21:48:22.720Z,5.63
2023-05-17T21:50:55.139Z,5.65
2023-05-17T21:53:27.542Z,5.53
2023-05-17T21:56:03.078Z,5.40
2023-05-17T21:58:35.626Z,6.25
2023-05-17T22:01:08.740Z,5.20
2023-05-17T22:03:41.024Z,6.43
2023-05-17T22:06:13.744Z,4.82
2023-05-17T22:08:46.860Z,5.80
2023-05-17T22:11:23.051Z,5.50
2023-05-17T22:13:56.696Z,4.93
2023-05-17T22:19:07.385Z,5.28
2023-05-17T22:21:39.688Z,5.25
2023-05-17T22:24:12.044Z,5.30
2023-05-17T22:26:44.429Z,5.45
2023-05-17T22:29:16.936Z,5.65
2023-05-17T22:31:50.403Z,5.88
2023-05-17T22:34:23.445Z,5.75
2023-05-17T22:36:57.430Z,6.15
2023-05-17T22:39:29.821Z,5.95
2023-05-17T22:42:02.866Z,6.05
2023-05-17T22:44:37.085Z,5.72
2023-05-17T22:47:09.506Z,5.60
2023-05-17T22:49:42.156Z,6.20
2023-05-17T22:52:16.248Z,5.78
2023-05-17T22:54:48.471Z,6.00
2023-05-17T22:57:21.310Z,5.82
2023-05-17T22:59:53.773Z,5.63
2023-05-17T23:02:26.292Z,5.50
2023-05-17T23:04:58.521Z,6.00
2023-05-17T23:07:37.211Z,5.20
2023-05-17T23:10:11.491Z,5.57
2023-05-17T23:12:43.674Z,5.88
2023-05-17T23:15:16.497Z,6.10
2023-05-17T23:17:49.281Z,5.63
2023-05-17T23:20:25.909Z,6.10
2023-05-17T23:22:59.788Z,6.15
2023-05-17T23:25:32.153Z,5.93
2023-05-17T23:28:04.860Z,6.38
2023-05-17T23:30:38.692Z,6.75
2023-05-17T23:33:11.752Z,6.22
2023-05-17T23:35:43.907Z,6.15
2023-05-17T23:38:16.311Z,5.65
2023-05-17T23:40:48.489Z,5.90
2023-05-17T23:43:20.972Z,6.47
2023-05-17T23:45:53.807Z,5.97
2023-05-17T23:48:26.040Z,5.93
2023-05-17T23:50:58.444Z,5.80
2023-05-17T23:53:30.654Z,6.22
2023-05-17T23:56:02.865Z,6.13
2023-05-17T23:58:35.487Z,6.43
